createdAt,value
2022-10-19T00:02:26.192Z,16.90
2022-10-19T00:05:23.165Z,21.90
2022-10-19T00:08:48.480Z,17.00
2022-10-19T00:11:19.682Z,14.60
2022-10-19T00:17:43.247Z,22.70
2022-10-19T00:20:44.912Z,18.20
2022-10-19T00:23:28.600Z,18.70
2022-10-19T00:26:08.426Z,17.70
2022-10-19T00:28:49.643Z,20.90
2022-10-19T00:31:45.306Z,19.10
2022-10-19T00:34:29.418Z,18.00
2022-10-19T00:37:12.509Z,18.30
2022-10-19T00:39:53.811Z,15.30
2022-10-19T00:42:36.321Z,17.60
2022-10-19T00:45:31.830Z,17.00
2022-10-19T00:48:13.898Z,17.60
2022-10-19T00:51:01.562Z,22.90
2022-10-19T00:53:41.834Z,16.70
2022-10-19T00:56:18.074Z,15.00
2022-10-19T00:59:05.427Z,17.20
2022-10-19T01:02:13.684Z,14.90
2022-10-19T01:05:49.348Z,18.30
2022-10-19T01:08:43.710Z,16.90
2022-10-19T01:11:50.187Z,16.30
2022-10-19T01:15:08.749Z,22.00
2022-10-19T01:18:32.139Z,21.20
2022-10-19T01:22:59.954Z,16.10
2022-10-19T01:24:48.031Z,16.40
2022-10-19T01:27:34.924Z,24.20
2022-10-19T01:31:28.934Z,16.90
2022-10-19T01:35:08.590Z,17.20
2022-10-19T01:38:25.218Z,23.40
2022-10-19T01:41:16.590Z,19.50
2022-10-19T01:44:04.886Z,22.50
2022-10-19T01:47:02.558Z,22.60
2022-10-19T01:53:32.239Z,23.40
2022-10-19T01:56:21.910Z,25.90
2022-10-19T01:59:14.109Z,27.20
2022-10-19T02:01:57.171Z,25.10
2022-10-19T02:04:37.187Z,25.50
2022-10-19T02:07:27.321Z,26.00
2022-10-19T02:10:02.598Z,25.80
2022-10-19T02:12:35.330Z,24.20
2022-10-19T02:15:29.099Z,27.00
2022-10-19T02:18:27.684Z,26.10
2022-10-19T02:21:16.594Z,26.20
2022-10-19T02:24:08.644Z,25.20
2022-10-19T02:26:41.231Z,24.50
2022-10-19T02:29:32.214Z,25.80
2022-10-19T02:32:16.254Z,24.80
2022-10-19T02:35:06.877Z,26.20
2022-10-19T02:38:19.795Z,26.10
2022-10-19T02:41:49.220Z,24.40
2022-10-19T02:45:03.513Z,28.70
2022-10-19T02:48:07.353Z,26.80
2022-10-19T02:51:04.395Z,27.30
2022-10-19T02:57:26.935Z,28.80
2022-10-19T03:03:57.582Z,26.30
2022-10-19T03:06:53.891Z,26.20
2022-10-19T03:09:34.530Z,27.20
2022-10-19T03:12:08.625Z,24.70
2022-10-19T03:14:51.429Z,26.00
2022-10-19T03:19:18.259Z,30.00
2022-10-19T03:20:47.924Z,25.30
2022-10-19T03:24:03.596Z,23.80
2022-10-19T03:27:13.296Z,25.70
2022-10-19T03:34:07.307Z,23.70
2022-10-19T03:37:40.937Z,23.00
2022-10-19T03:40:38.165Z,23.80
2022-10-19T03:46:51.225Z,24.30
2022-10-19T03:51:14.185Z,25.60
2022-10-19T03:53:41.674Z,25.20
2022-10-19T03:56:53.994Z,24.00
2022-10-19T04:00:24.794Z,23.60
2022-10-19T04:03:25.360Z,26.00
2022-10-19T04:06:29.960Z,28.20
2022-10-19T04:09:45.069Z,22.70
2022-10-19T04:13:06.099Z,23.70
2022-10-19T04:16:07.280Z,25.80
2022-10-19T04:19:04.869Z,25.60
2022-10-19T04:22:05.831Z,24.30
2022-10-19T04:28:41.089Z,26.30
2022-10-19T04:31:56.976Z,22.00
2022-10-19T04:38:15.895Z,19.20
2022-10-19T04:40:54.260Z,23.60
2022-10-19T04:47:44.650Z,20.30
2022-10-19T04:51:00.153Z,21.70
2022-10-19T04:54:22.467Z,23.70
2022-10-19T04:57:55.082Z,19.60
2022-10-19T05:04:13.269Z,19.70
2022-10-19T05:07:05.944Z,20.40
2022-10-19T05:10:22.223Z,21.20
2022-10-19T05:20:18.415Z,34.70
2022-10-19T05:26:48.203Z,35.20
2022-10-19T05:30:03.374Z,28.10
2022-10-19T05:32:52.730Z,19.40
2022-10-19T05:36:41.823Z,23.40
2022-10-19T05:39:38.235Z,16.90
2022-10-19T05:42:24.144Z,16.00
2022-10-19T05:45:01.754Z,18.20
2022-10-19T05:47:35.417Z,15.60
2022-10-19T05:50:08.536Z,18.20
2022-10-19T05:52:54.711Z,19.50
2022-10-19T05:57:36.882Z,17.90
2022-10-19T06:02:20.411Z,15.80
2022-10-19T06:05:30.222Z,19.00
2022-10-19T06:08:14.996Z,15.00
2022-10-19T06:11:47.190Z,16.10
2022-10-19T06:21:08.665Z,11.30
2022-10-19T06:24:09.046Z,14.30
2022-10-19T06:26:55.294Z,15.80
2022-10-19T06:30:19.884Z,14.70
2022-10-19T06:33:16.746Z,17.70
2022-10-19T06:36:27.355Z,13.90
2022-10-19T06:39:09.977Z,11.20
2022-10-19T06:42:13.018Z,12.10
2022-10-19T06:44:59.300Z,13.10
2022-10-19T06:47:45.182Z,12.10
2022-10-19T06:50:28.837Z,13.30
2022-10-19T06:53:39.850Z,10.50
2022-10-19T06:59:51.390Z,9.50
2022-10-19T07:02:31.210Z,12.80
2022-10-19T07:06:46.741Z,9.40
2022-10-19T07:09:10.937Z,9.90
2022-10-19T07:15:54.079Z,9.30
2022-10-19T07:20:42.693Z,14.90
2022-10-19T07:23:10.744Z,9.20
2022-10-19T07:25:40.687Z,11.30
2022-10-19T07:32:46.919Z,10.70
2022-10-19T07:36:24.009Z,14.50
2022-10-19T07:39:26.036Z,12.70
2022-10-19T07:42:51.515Z,12.30
2022-10-19T07:46:05.045Z,14.20
2022-10-19T07:49:03.595Z,10.10
2022-10-19T07:52:02.968Z,12.30
2022-10-19T07:54:38.665Z,11.40
2022-10-19T07:58:11.950Z,12.20
2022-10-19T08:01:26.536Z,11.60
2022-10-19T08:07:58.636Z,12.50
2022-10-19T08:11:42.464Z,8.20
2022-10-19T08:14:55.130Z,10.70
2022-10-19T08:45:49.969Z,9.30
2022-10-19T09:00:49.650Z,9.60
2022-10-19T09:06:06.763Z,7.40
2022-10-19T09:07:37.606Z,5.80
2022-10-19T09:11:38.432Z,6.00
2022-10-19T09:14:06.298Z,11.70
2022-10-19T09:23:36.222Z,9.70
2022-10-19T09:27:38.996Z,5.70
2022-10-19T09:34:26.172Z,4.10
2022-10-19T09:36:57.800Z,5.70
2022-10-19T09:39:55.387Z,6.20
2022-10-19T09:43:05.549Z,6.40
2022-10-19T09:46:09.633Z,8.10
2022-10-19T09:50:41.657Z,4.90
2022-10-19T09:52:02.361Z,9.30
2022-10-19T09:54:44.239Z,16.50
2022-10-19T09:57:29.121Z,12.10
2022-10-19T10:00:08.723Z,5.80
2022-10-19T10:02:48.595Z,6.60
2022-10-19T10:05:18.803Z,7.80
2022-10-19T10:07:48.708Z,9.40
2022-10-19T10:10:55.319Z,8.20
2022-10-19T10:13:51.020Z,9.00
2022-10-19T10:16:33.823Z,4.90
2022-10-19T10:19:27.266Z,7.20
2022-10-19T10:22:02.278Z,5.30
2022-10-19T10:24:53.671Z,8.00
2022-10-19T10:27:59.426Z,9.20
2022-10-19T10:30:51.797Z,7.30
2022-10-19T10:33:46.088Z,7.10
2022-10-19T10:36:32.108Z,11.70
2022-10-19T10:39:14.424Z,5.10
2022-10-19T10:41:56.342Z,5.50
2022-10-19T10:44:36.456Z,3.00
2022-10-19T10:47:21.651Z,3.90
2022-10-19T10:50:39.828Z,7.00
2022-10-19T10:53:51.108Z,9.50
2022-10-19T10:56:34.021Z,8.70
2022-10-19T10:59:26.259Z,7.70
2022-10-19T11:02:22.121Z,5.10
2022-10-19T11:05:39.887Z,5.90
2022-10-19T11:08:19.110Z,7.70
2022-10-19T11:11:00.284Z,6.40
2022-10-19T11:13:58.895Z,7.00
2022-10-19T11:16:43.667Z,6.30
2022-10-19T11:19:34.083Z,8.50
2022-10-19T11:22:34.066Z,5.30
2022-10-19T11:25:30.608Z,5.30
2022-10-19T11:28:50.084Z,7.30
2022-10-19T11:32:16.464Z,8.90
2022-10-19T11:36:02.226Z,9.00
2022-10-19T11:38:59.394Z,5.90
2022-10-19T11:42:29.194Z,7.20
2022-10-19T11:45:41.124Z,3.90
2022-10-19T11:48:43.842Z,5.70
2022-10-19T11:52:02.315Z,4.40
2022-10-19T11:54:59.858Z,4.20
2022-10-19T11:58:08.741Z,8.30
2022-10-19T12:01:05.285Z,6.20
2022-10-19T12:04:22.747Z,4.60
2022-10-19T12:07:25.156Z,5.40
2022-10-19T12:10:41.579Z,7.60
2022-10-19T12:13:42.064Z,3.40
2022-10-19T12:17:47.723Z,5.30
2022-10-19T12:28:09.278Z,4.50
2022-10-19T12:34:41.506Z,8.60
2022-10-19T12:38:05.317Z,7.80
2022-10-19T12:42:12.655Z,6.80
2022-10-19T12:45:23.216Z,4.30
2022-10-19T12:51:52.821Z,3.00
2022-10-19T12:55:29.582Z,7.40
2022-10-19T13:01:45.363Z,2.70
2022-10-19T13:04:40.516Z,3.00
2022-10-19T13:07:27.109Z,6.50
2022-10-19T13:10:11.244Z,3.50
2022-10-19T13:13:04.003Z,4.90
2022-10-19T13:16:34.534Z,5.80
2022-10-19T13:20:02.524Z,3.10
2022-10-19T13:26:46.950Z,5.00
2022-10-19T13:36:06.571Z,7.00
2022-10-19T13:38:56.349Z,7.90
2022-10-19T13:42:00.266Z,6.60
2022-10-19T13:44:42.761Z,6.40
2022-10-19T13:47:50.365Z,7.40
2022-10-19T13:50:58.498Z,5.80
2022-10-19T13:54:14.255Z,7.30
2022-10-19T13:57:18.189Z,3.50
2022-10-19T14:00:35.831Z,6.00
2022-10-19T14:03:55.257Z,4.70
2022-10-19T14:06:59.393Z,6.20
2022-10-19T14:09:48.800Z,3.10
2022-10-19T14:12:45.295Z,8.90
2022-10-19T14:15:21.467Z,8.50
2022-10-19T14:18:35.101Z,5.80
2022-10-19T14:21:34.018Z,6.90
2022-10-19T14:24:06.684Z,6.50
2022-10-19T14:26:45.172Z,8.50
2022-10-19T14:30:04.036Z,7.50
2022-10-19T14:32:41.298Z,7.30
2022-10-19T14:36:27.223Z,8.70
2022-10-19T14:38:40.654Z,5.10
2022-10-19T14:41:49.339Z,4.10
2022-10-19T14:44:49.599Z,4.40
2022-10-19T14:50:29.017Z,4.50
2022-10-19T14:54:31.376Z,4.70
2022-10-19T14:57:11.342Z,5.00
2022-10-19T14:59:56.621Z,4.00
2022-10-19T15:02:50.093Z,8.10
2022-10-19T15:05:52.359Z,9.30
2022-10-19T15:11:37.863Z,5.90
2022-10-19T15:14:20.875Z,7.10
2022-10-19T15:17:20.804Z,11.50
2022-10-19T15:20:04.805Z,10.30
2022-10-19T15:22:41.882Z,9.70
2022-10-19T15:31:38.845Z,7.20
2022-10-19T15:34:34.357Z,12.10
2022-10-19T15:40:38.678Z,9.10
2022-10-19T15:43:39.963Z,10.70
2022-10-19T15:47:08.580Z,11.10
2022-10-19T15:49:44.460Z,11.80
2022-10-19T15:52:30.429Z,8.60
2022-10-19T15:55:07.472Z,7.40
2022-10-19T15:59:28.729Z,8.70
2022-10-19T16:00:51.842Z,10.60
2022-10-19T16:03:23.366Z,12.80
2022-10-19T16:05:53.750Z,14.50
2022-10-19T16:08:25.337Z,17.40
2022-10-19T16:10:54.325Z,22.20
2022-10-19T16:13:23.268Z,16.30
2022-10-19T16:16:10.402Z,15.10
2022-10-19T16:18:41.332Z,13.90
2022-10-19T16:21:10.344Z,11.60
2022-10-19T16:23:42.037Z,9.80
2022-10-19T16:26:17.389Z,6.00
2022-10-19T16:29:04.583Z,7.90
2022-10-19T16:31:44.497Z,6.00
2022-10-19T16:34:22.524Z,8.50
2022-10-19T16:37:11.869Z,9.80
2022-10-19T16:40:02.233Z,14.30
2022-10-19T16:42:39.857Z,17.70
2022-10-19T16:45:11.413Z,24.50
2022-10-19T16:47:56.783Z,16.70
2022-10-19T16:50:30.766Z,26.10
2022-10-19T16:53:13.016Z,24.90
2022-10-19T16:55:56.239Z,23.20
2022-10-19T16:58:28.577Z,24.40
2022-10-19T17:01:17.684Z,23.40
2022-10-19T17:03:50.657Z,25.10
2022-10-19T17:06:20.727Z,33.80
2022-10-19T17:09:30.180Z,29.20
2022-10-19T17:11:55.289Z,25.10
2022-10-19T17:14:31.410Z,26.80
2022-10-19T17:17:13.556Z,22.60
2022-10-19T17:19:52.068Z,23.90
2022-10-19T17:22:28.578Z,24.70
2022-10-19T17:26:14.254Z,22.70
2022-10-19T17:28:51.740Z,23.60
2022-10-19T17:31:26.696Z,18.30
2022-10-19T17:34:01.819Z,23.90
2022-10-19T17:36:44.767Z,18.80
2022-10-19T17:39:29.951Z,20.00
2022-10-19T17:42:03.671Z,14.30
2022-10-19T17:44:37.815Z,16.00
2022-10-19T17:47:30.651Z,14.30
2022-10-19T17:50:00.367Z,16.20
2022-10-19T17:52:41.957Z,20.90
2022-10-19T17:55:19.010Z,17.40
2022-10-19T17:58:09.118Z,18.10
2022-10-19T18:03:28.232Z,17.40
2022-10-19T18:06:12.176Z,20.10
2022-10-19T18:08:45.715Z,16.40
2022-10-19T18:14:12.019Z,21.40
2022-10-19T18:16:52.216Z,23.30
2022-10-19T18:19:22.387Z,28.90
2022-10-19T18:21:57.701Z,20.70
2022-10-19T18:24:39.114Z,22.90
2022-10-19T18:27:41.188Z,20.40
2022-10-19T18:30:23.054Z,21.10
2022-10-19T18:32:56.765Z,23.60
2022-10-19T18:35:43.065Z,28.60
2022-10-19T18:38:14.563Z,28.50
2022-10-19T18:40:48.279Z,27.50
2022-10-19T18:43:25.194Z,30.70
2022-10-19T18:46:05.254Z,26.80
2022-10-19T18:51:38.337Z,25.60
2022-10-19T18:54:27.030Z,27.70
2022-10-19T18:57:06.611Z,38.40
2022-10-19T18:59:36.259Z,34.90
2022-10-19T19:02:22.266Z,42.40
2022-10-19T19:05:06.344Z,37.80
2022-10-19T19:14:40.472Z,41.50
2022-10-19T19:17:13.762Z,62.40
2022-10-19T19:20:04.873Z,54.90
2022-10-19T19:26:07.966Z,63.20
2022-10-19T19:28:56.525Z,65.10
2022-10-19T19:31:43.731Z,58.00
2022-10-19T19:34:54.562Z,60.50
2022-10-19T19:37:39.601Z,70.70
2022-10-19T19:40:31.955Z,60.20
2022-10-19T19:46:00.033Z,70.20
2022-10-19T19:51:35.574Z,63.70
2022-10-19T19:54:17.448Z,65.50
2022-10-19T19:56:55.587Z,64.20
2022-10-19T20:00:32.179Z,65.70
2022-10-19T20:03:07.719Z,64.40
2022-10-19T20:06:08.913Z,61.30
2022-10-19T20:09:25.094Z,54.60
2022-10-19T20:12:35.717Z,52.90
2022-10-19T20:18:23.982Z,57.30
2022-10-19T20:21:31.890Z,48.40
2022-10-19T20:24:23.798Z,48.80
2022-10-19T20:26:59.710Z,52.10
2022-10-19T20:29:45.005Z,53.70
2022-10-19T20:32:32.614Z,48.00
2022-10-19T20:35:43.770Z,49.20
2022-10-19T20:38:29.986Z,49.50
2022-10-19T20:41:20.727Z,50.00
2022-10-19T20:44:01.395Z,45.10
2022-10-19T20:46:49.333Z,44.40
2022-10-19T20:49:54.811Z,43.60
2022-10-19T20:52:51.575Z,42.60
2022-10-19T20:55:40.123Z,48.40
2022-10-19T20:58:42.478Z,49.20
2022-10-19T21:01:34.094Z,56.70
2022-10-19T21:04:27.945Z,50.00
2022-10-19T21:07:21.810Z,51.00
2022-10-19T21:10:17.399Z,58.50
2022-10-19T21:13:00.923Z,54.00
2022-10-19T21:18:18.512Z,54.90
2022-10-19T21:20:54.013Z,47.30
2022-10-19T21:24:17.835Z,51.80
2022-10-19T21:27:00.148Z,57.20
2022-10-19T21:29:47.654Z,49.10
2022-10-19T21:32:37.173Z,45.00
2022-10-19T21:38:30.011Z,43.70
2022-10-19T21:41:15.597Z,43.00
2022-10-19T21:44:41.449Z,48.00
2022-10-19T21:47:29.943Z,47.20
2022-10-19T21:49:59.284Z,40.40
2022-10-19T21:52:41.878Z,43.30
2022-10-19T22:01:37.301Z,43.50
2022-10-19T22:16:31.976Z,51.10
2022-10-19T22:27:13.088Z,45.40
2022-10-19T22:30:14.885Z,44.00
2022-10-19T22:33:40.878Z,54.30
2022-10-19T23:01:12.803Z,54.00
2022-10-19T23:03:57.704Z,49.00
2022-10-19T23:06:36.218Z,51.80
2022-10-19T23:09:12.889Z,42.10
2022-10-19T23:18:55.414Z,40.60
2022-10-19T23:21:35.223Z,39.70
2022-10-19T23:24:35.923Z,36.20
2022-10-19T23:30:14.145Z,34.50
2022-10-19T23:36:36.269Z,41.50
2022-10-19T23:39:45.948Z,35.70
2022-10-19T23:42:25.456Z,37.10
2022-10-19T23:45:13.767Z,38.80
2022-10-19T23:47:57.189Z,38.60
2022-10-19T23:50:30.431Z,37.20
2022-10-19T23:53:25.484Z,41.70
2022-10-19T23:56:55.042Z,42.90
